N Myrtle Beach, South Carolina
Current Conditions -  °F | °C
As of 8:53 AM on Sunday 21 Dec 2014 (Local Time) from KCRE Reporting Station
Light Rain Light Rain  
Wind Chill: 37°   Ceiling: 7000
Heat Index: 42°   Visibility: 10mi
Dew Point: 35°   Wind: 8mph
Humidity: 76%   Direction: 20°NNE
Pressure: 30.26"   Gusts: NA
Location:  33.82°N, 78.68°W
Report Text: KCRE 211353Z 02007KT 10SM -RA OVC070 06/02 A3026 RMK AO1 RAB50 SLP246 P0000 T00560017
Loading
Personal Weather Stations






























Interactive Weather Map New forecast layout! Learn more

10-Day Weather Forecast

Advertisements
Track Severe Weather on mobile